Time;durP1;ratioP1;P1;durP2;ratioP2;P2;SDS_P1;SDS_P2;PMS_P1;PMS_P2;Temp;Humidity;BMP_temperature;BMP_pressure;BME280_temperature;BME280_humidity;BME280_pressure;Samples;Min_cycle;Max_cycle;Signal;HPM_P1;HPM_P2
2021/08/16 00:00:07;;;;;;;13.97;3.00;;;15.50;99.90;;;;;;5093552;28;20657;-77
2021/08/16 00:02:34;;;;;;;12.83;2.77;;;15.40;99.90;;;;;;5093403;28;20203;-76
2021/08/16 00:05:01;;;;;;;23.80;3.67;;;15.40;99.90;;;;;;5093344;28;20222;-76
2021/08/16 00:07:28;;;;;;;16.73;2.80;;;15.40;99.90;;;;;;5093198;28;20286;-77
2021/08/16 00:09:56;;;;;;;15.60;3.23;;;15.30;99.90;;;;;;5090151;28;20253;-77
2021/08/16 00:12:23;;;;;;;16.33;3.23;;;15.40;99.90;;;;;;5093167;28;20199;-77
2021/08/16 00:14:50;;;;;;;12.63;2.80;;;15.40;99.90;;;;;;5097274;28;20211;-77
2021/08/16 00:17:17;;;;;;;13.17;3.07;;;15.40;99.90;;;;;;5092666;28;20282;-77
2021/08/16 00:19:44;;;;;;;16.10;2.83;;;15.30;99.90;;;;;;5090980;28;20214;-76
2021/08/16 00:22:11;;;;;;;13.00;2.90;;;15.40;99.90;;;;;;5091493;28;20290;-78
2021/08/16 00:24:38;;;;;;;12.87;3.00;;;15.40;99.90;;;;;;5092015;28;20206;-78
2021/08/16 00:27:06;;;;;;;9.13;3.03;;;15.30;99.90;;;;;;5091676;28;20289;-77
2021/08/16 00:29:33;;;;;;;16.60;3.47;;;15.40;99.90;;;;;;5091168;28;20284;-76
2021/08/16 00:32:00;;;;;;;11.57;2.70;;;15.40;99.90;;;;;;5092066;28;20201;-76
2021/08/16 00:34:27;;;;;;;11.20;2.97;;;15.40;99.90;;;;;;5091876;28;20230;-76
2021/08/16 00:36:53;;;;;;;17.00;2.83;;;15.50;99.90;;;;;;5091368;28;20289;-76
2021/08/16 00:39:21;;;;;;;9.50;3.27;;;15.60;99.90;;;;;;5092337;28;20203;-77
2021/08/16 00:41:49;;;;;;;9.17;2.57;;;15.60;99.90;;;;;;5098771;28;20206;-77
2021/08/16 00:44:18;;;;;;;20.17;2.90;;;15.70;99.90;;;;;;5095253;28;20282;-78
2021/08/16 00:46:45;;;;;;;12.07;3.10;;;15.80;99.90;;;;;;5092867;28;20207;-75
2021/08/16 00:49:14;;;;;;;11.97;2.90;;;15.90;99.90;;;;;;5092208;28;20308;-78
2021/08/16 00:51:41;;;;;;;13.17;2.40;;;16.00;99.90;;;;;;5091788;28;20207;-78
2021/08/16 00:54:09;;;;;;;17.50;2.37;;;16.00;99.90;;;;;;5092399;28;20206;-76
2021/08/16 00:56:38;;;;;;;10.63;2.50;;;16.10;99.90;;;;;;5092481;28;20205;-78
2021/08/16 00:59:07;;;;;;;17.90;2.77;;;16.20;99.90;;;;;;5092883;28;20210;-77
2021/08/16 01:01:35;;;;;;;10.30;2.43;;;16.20;99.90;;;;;;5092729;28;20230;-77
2021/08/16 01:04:02;;;;;;;11.33;2.40;;;16.20;99.90;;;;;;5097537;28;20692;-76
2021/08/16 01:06:30;;;;;;;14.70;2.77;;;16.20;99.90;;;;;;5106309;28;20199;-77
2021/08/16 01:08:57;;;;;;;12.07;2.53;;;16.20;99.90;;;;;;5114624;28;20222;-76
2021/08/16 01:11:24;;;;;;;12.67;2.70;;;16.20;99.90;;;;;;5110094;28;20266;-76
2021/08/16 01:13:52;;;;;;;12.23;2.57;;;16.20;99.90;;;;;;5106932;28;20227;-77
2021/08/16 01:16:20;;;;;;;19.70;2.80;;;16.20;99.90;;;;;;5105914;28;20195;-77
2021/08/16 01:18:50;;;;;;;18.73;2.50;;;16.30;99.90;;;;;;5106372;28;20274;-77
2021/08/16 01:21:19;;;;;;;14.90;2.67;;;16.30;99.90;;;;;;5105614;28;20195;-77
2021/08/16 01:23:47;;;;;;;8.47;2.37;;;16.30;99.90;;;;;;5106060;28;20627;-77
2021/08/16 01:26:14;;;;;;;13.90;2.90;;;16.30;99.90;;;;;;5105735;28;20628;-76
2021/08/16 01:28:42;;;;;;;11.57;2.83;;;16.40;99.90;;;;;;5101054;28;20688;-76
2021/08/16 01:31:10;;;;;;;13.37;3.00;;;16.30;99.90;;;;;;5093451;28;20211;-75
2021/08/16 01:33:39;;;;;;;11.70;2.50;;;16.40;99.90;;;;;;5093270;28;20245;-76
2021/08/16 01:36:06;;;;;;;16.47;2.97;;;16.50;99.90;;;;;;5095353;28;20258;-76
2021/08/16 01:38:35;;;;;;;13.40;3.00;;;16.50;99.90;;;;;;5093128;28;20237;-76
2021/08/16 01:41:03;;;;;;;11.50;2.80;;;16.50;99.90;;;;;;5093426;28;20269;-76
2021/08/16 01:43:30;;;;;;;13.90;2.97;;;16.50;99.90;;;;;;5096596;28;20630;-76
2021/08/16 01:45:59;;;;;;;12.77;2.37;;;16.50;99.90;;;;;;5095932;28;20203;-77
2021/08/16 01:48:26;;;;;;;14.03;2.80;;;16.50;99.90;;;;;;5103815;28;20209;-76
2021/08/16 01:50:53;;;;;;;14.17;2.27;;;16.40;99.90;;;;;;5114182;28;20214;-76
2021/08/16 01:53:20;;;;;;;12.47;2.93;;;16.40;99.90;;;;;;5111586;28;20565;-79
2021/08/16 01:55:47;;;;;;;10.97;2.37;;;16.40;99.90;;;;;;5096058;28;20274;-76
2021/08/16 01:58:14;;;;;;;12.57;3.10;;;16.40;99.90;;;;;;5095783;28;20245;-77
2021/08/16 02:00:41;;;;;;;8.60;2.63;;;16.40;99.90;;;;;;5094989;28;20203;-76
2021/08/16 02:03:10;;;;;;;10.80;2.30;;;16.40;99.90;;;;;;5095631;28;20210;-76
2021/08/16 02:05:36;;;;;;;11.47;2.53;;;16.50;99.90;;;;;;5095305;28;20201;-77
2021/08/16 02:08:04;;;;;;;10.50;2.20;;;16.40;99.90;;;;;;5095047;28;20209;-77
2021/08/16 02:10:31;;;;;;;10.00;2.47;;;16.50;99.90;;;;;;5095344;28;20268;-77
2021/08/16 02:12:58;;;;;;;12.50;2.43;;;16.40;99.90;;;;;;5094917;28;20207;-76
2021/08/16 02:15:25;;;;;;;12.97;2.60;;;16.30;99.90;;;;;;5094721;28;20242;-76
2021/08/16 02:17:52;;;;;;;12.50;2.70;;;16.30;99.90;;;;;;5095127;28;20281;-77
2021/08/16 02:20:20;;;;;;;13.27;2.43;;;16.30;99.90;;;;;;5094147;28;20712;-79
2021/08/16 02:22:47;;;;;;;14.23;2.80;;;16.40;99.90;;;;;;5094549;28;20290;-76
2021/08/16 02:25:14;;;;;;;10.70;2.30;;;16.40;99.90;;;;;;5094684;28;20219;-77
2021/08/16 02:27:46;;;;;;;14.33;2.43;;;16.30;99.90;;;;;;5094385;28;20589;-77
2021/08/16 02:30:15;;;;;;;12.63;2.33;;;16.30;99.90;;;;;;5094554;28;20310;-76
2021/08/16 02:32:42;;;;;;;19.17;2.77;;;16.30;99.90;;;;;;5091126;28;20210;-76
2021/08/16 02:35:10;;;;;;;10.90;2.37;;;16.30;99.90;;;;;;5094554;28;20606;-77
2021/08/16 02:37:39;;;;;;;13.10;3.43;;;16.30;99.90;;;;;;5086553;28;20613;-78
2021/08/16 02:40:08;;;;;;;9.77;2.47;;;16.40;99.90;;;;;;5094843;28;20205;-78
2021/08/16 02:42:35;;;;;;;10.80;2.47;;;16.30;99.90;;;;;;5093530;28;20277;-77
2021/08/16 02:45:02;;;;;;;14.00;2.20;;;16.30;99.90;;;;;;5094003;28;20223;-77
2021/08/16 02:47:29;;;;;;;10.27;2.90;;;16.40;99.90;;;;;;5094656;28;20242;-77
2021/08/16 02:49:56;;;;;;;12.30;2.43;;;16.20;99.90;;;;;;5095135;28;20651;-77
2021/08/16 02:52:23;;;;;;;6.53;2.20;;;16.30;99.90;;;;;;5104881;28;20232;-76
2021/08/16 02:54:51;;;;;;;14.57;2.90;;;16.30;99.90;;;;;;5095639;27;20281;-77
2021/08/16 02:57:21;;;;;;;14.63;2.50;;;16.40;99.90;;;;;;5093408;28;20730;-76
2021/08/16 02:59:48;;;;;;;13.93;2.70;;;16.40;99.90;;;;;;5094210;28;20199;-78
2021/08/16 03:02:15;;;;;;;10.77;2.30;;;16.40;99.90;;;;;;5093982;28;20684;-78
2021/08/16 03:04:42;;;;;;;12.77;2.37;;;16.40;99.90;;;;;;5094901;28;20289;-76
2021/08/16 03:07:09;;;;;;;20.87;3.17;;;16.40;99.90;;;;;;5094698;28;20613;-77
2021/08/16 03:09:36;;;;;;;15.97;2.80;;;16.40;99.90;;;;;;5093844;28;20223;-75
2021/08/16 03:12:06;;;;;;;12.67;2.60;;;16.40;99.90;;;;;;5094310;28;20627;-78
2021/08/16 03:14:33;;;;;;;10.13;2.70;;;16.40;99.90;;;;;;5093387;28;20202;-76
2021/08/16 03:17:00;;;;;;;18.47;2.40;;;16.40;99.90;;;;;;5094608;28;20197;-76
2021/08/16 03:19:27;;;;;;;9.07;2.20;;;16.50;99.90;;;;;;5093402;28;20574;-77
2021/08/16 03:21:54;;;;;;;13.87;3.13;;;16.40;99.90;;;;;;5094056;28;20237;-77
2021/08/16 03:24:21;;;;;;;10.17;2.43;;;16.50;99.90;;;;;;5093515;28;20263;-76
2021/08/16 03:26:48;;;;;;;9.90;2.40;;;16.40;99.90;;;;;;5093707;28;20199;-77
2021/08/16 03:29:16;;;;;;;11.10;2.90;;;16.40;99.90;;;;;;5094017;28;20225;-77
2021/08/16 03:31:44;;;;;;;10.07;2.60;;;16.40;99.90;;;;;;5094337;28;20230;-76
2021/08/16 03:34:11;;;;;;;13.20;2.50;;;16.50;99.90;;;;;;5093630;28;20285;-78
2021/08/16 03:36:38;;;;;;;10.57;1.93;;;16.50;99.90;;;;;;5093991;28;20279;-77
2021/08/16 03:39:05;;;;;;;11.97;2.57;;;16.40;99.90;;;;;;5093708;28;20209;-76
2021/08/16 03:41:32;;;;;;;12.53;2.50;;;16.40;99.90;;;;;;5094156;28;20225;-75
2021/08/16 03:43:59;;;;;;;15.33;2.83;;;16.30;99.90;;;;;;5093334;28;20227;-76
2021/08/16 03:46:27;;;;;;;11.43;2.53;;;16.20;99.90;;;;;;5093854;28;20203;-78
2021/08/16 03:48:54;;;;;;;9.97;3.00;;;16.30;99.90;;;;;;5093143;28;20705;-77
2021/08/16 03:51:21;;;;;;;12.73;2.53;;;16.20;99.90;;;;;;5093380;28;20755;-77
2021/08/16 03:53:48;;;;;;;17.07;2.83;;;16.20;99.90;;;;;;5093772;28;20296;-76
2021/08/16 03:56:15;;;;;;;22.97;3.13;;;16.10;99.90;;;;;;5093359;28;20222;-76
2021/08/16 03:58:42;;;;;;;11.53;2.37;;;16.10;99.90;;;;;;5092500;28;20641;-77
2021/08/16 04:01:10;;;;;;;18.60;2.77;;;16.00;99.90;;;;;;5093519;28;20236;-76
2021/08/16 04:03:41;;;;;;;11.13;2.80;;;16.00;99.90;;;;;;5091512;28;20199;-78
2021/08/16 04:06:07;;;;;;;11.93;2.37;;;15.90;99.90;;;;;;5091684;28;20218;-76
2021/08/16 04:08:38;;;;;;;12.53;2.77;;;15.90;99.90;;;;;;5092705;28;20275;-76
2021/08/16 04:11:05;;;;;;;13.90;2.87;;;15.80;99.90;;;;;;5091689;28;20226;-76
2021/08/16 04:13:32;;;;;;;14.53;3.07;;;15.70;99.90;;;;;;5092413;28;20639;-77
2021/08/16 04:15:59;;;;;;;14.27;2.90;;;15.70;99.90;;;;;;5091836;28;20226;-77
2021/08/16 04:18:26;;;;;;;12.83;2.70;;;15.60;99.90;;;;;;5091922;28;20205;-76
2021/08/16 04:20:54;;;;;;;16.83;3.63;;;15.60;99.90;;;;;;5093019;28;20295;-76
2021/08/16 04:23:21;;;;;;;20.13;3.13;;;15.60;99.90;;;;;;5092377;28;20198;-80
2021/08/16 04:25:48;;;;;;;12.60;3.20;;;15.70;99.90;;;;;;5092542;28;20310;-76
2021/08/16 04:28:15;;;;;;;18.73;3.13;;;15.70;99.90;;;;;;5092422;28;20289;-76
2021/08/16 04:30:42;;;;;;;17.47;3.73;;;15.80;99.90;;;;;;5090210;28;20575;-79
2021/08/16 04:33:09;;;;;;;21.23;3.53;;;15.90;99.90;;;;;;5082004;28;20314;-76
2021/08/16 04:35:36;;;;;;;16.07;3.67;;;16.00;99.90;;;;;;5091695;28;20615;-78
2021/08/16 04:38:04;;;;;;;10.60;2.90;;;16.10;99.90;;;;;;5092074;28;20203;-76
2021/08/16 04:40:31;;;;;;;13.83;3.17;;;16.20;99.90;;;;;;5092816;28;20203;-76
2021/08/16 04:42:58;;;;;;;18.20;3.53;;;16.20;99.90;;;;;;5092801;28;20194;-78
2021/08/16 04:45:25;;;;;;;12.33;3.30;;;16.20;99.90;;;;;;5092466;28;20289;-76
2021/08/16 04:47:52;;;;;;;20.10;3.37;;;16.30;99.90;;;;;;5092484;28;20335;-75
2021/08/16 04:50:19;;;;;;;12.37;3.17;;;16.40;99.90;;;;;;5090600;28;20229;-76
2021/08/16 04:52:47;;;;;;;18.43;3.07;;;16.40;99.90;;;;;;5091267;28;20234;-78
2021/08/16 04:55:15;;;;;;;21.17;3.57;;;16.40;99.90;;;;;;5091592;28;20199;-77
2021/08/16 04:57:42;;;;;;;9.53;2.80;;;16.50;99.90;;;;;;5092130;28;20722;-76
2021/08/16 05:00:11;;;;;;;18.77;4.03;;;16.40;99.90;;;;;;5092888;28;20229;-78
2021/08/16 05:02:39;;;;;;;10.60;3.13;;;16.50;99.90;;;;;;5088137;28;20607;-78
2021/08/16 05:05:08;;;;;;;13.50;3.10;;;16.50;99.90;;;;;;5092339;28;20301;-76
2021/08/16 05:07:35;;;;;;;15.33;3.50;;;16.60;99.90;;;;;;5092449;28;20339;-78
2021/08/16 05:10:05;;;;;;;14.23;3.73;;;16.60;99.90;;;;;;5092305;28;20282;-77
2021/08/16 05:12:34;;;;;;;14.37;3.33;;;16.70;99.90;;;;;;5089495;28;20199;-77
2021/08/16 05:15:01;;;;;;;12.97;3.17;;;16.70;99.90;;;;;;5091714;28;20195;-77
2021/08/16 05:17:27;;;;;;;19.27;3.33;;;16.70;99.90;;;;;;5095171;28;20233;-78
2021/08/16 05:19:54;;;;;;;12.80;2.90;;;16.70;99.90;;;;;;5092256;28;20198;-77
2021/08/16 05:22:21;;;;;;;15.50;2.87;;;16.70;99.90;;;;;;5095315;28;20740;-79
2021/08/16 05:24:48;;;;;;;14.77;4.20;;;16.70;99.90;;;;;;5094520;28;20614;-75
2021/08/16 05:27:15;;;;;;;16.73;3.00;;;16.70;99.90;;;;;;5095167;28;20237;-77
2021/08/16 05:29:43;;;;;;;17.37;3.43;;;16.80;99.90;;;;;;5094608;28;20237;-76
2021/08/16 05:32:10;;;;;;;17.43;2.73;;;16.90;99.90;;;;;;5095601;28;20202;-78
2021/08/16 05:34:37;;;;;;;12.97;3.43;;;16.90;99.90;;;;;;5095532;28;20238;-77
2021/08/16 05:37:05;;;;;;;16.83;3.37;;;17.00;99.90;;;;;;5095617;28;20655;-78
2021/08/16 05:39:32;;;;;;;11.53;3.27;;;17.00;99.90;;;;;;5095183;28;20199;-76
2021/08/16 05:42:00;;;;;;;10.70;2.83;;;17.10;99.90;;;;;;5095536;28;20219;-77
2021/08/16 05:44:27;;;;;;;13.40;2.93;;;17.10;99.90;;;;;;5095407;28;20716;-77
2021/08/16 05:46:56;;;;;;;15.20;3.20;;;17.10;99.90;;;;;;5094849;28;20285;-77
2021/08/16 05:49:23;;;;;;;14.30;3.17;;;17.30;99.90;;;;;;5092615;28;20286;-77
2021/08/16 05:51:50;;;;;;;10.57;3.33;;;17.30;99.90;;;;;;5094130;28;20226;-75
2021/08/16 05:54:17;;;;;;;11.67;3.10;;;17.30;99.90;;;;;;5094023;28;20225;-77
2021/08/16 05:56:44;;;;;;;12.23;3.30;;;17.30;99.90;;;;;;5091954;28;20285;-76
2021/08/16 05:59:11;;;;;;;13.93;3.30;;;17.40;99.90;;;;;;5092455;28;20195;-75
2021/08/16 06:01:39;;;;;;;13.43;4.10;;;17.40;99.90;;;;;;5093898;28;20298;-76
2021/08/16 06:04:08;;;;;;;10.00;3.40;;;17.60;99.90;;;;;;5094063;28;20282;-76
2021/08/16 06:06:35;;;;;;;9.53;3.40;;;17.70;99.90;;;;;;5095135;28;20721;-79
2021/08/16 06:09:04;;;;;;;9.07;2.80;;;17.80;99.90;;;;;;5095346;28;20533;-77
2021/08/16 06:11:31;;;;;;;11.50;3.80;;;17.80;99.90;;;;;;5095838;28;20294;-77
2021/08/16 06:13:58;;;;;;;14.77;3.90;;;17.80;99.90;;;;;;5095711;28;20283;-75
2021/08/16 06:16:26;;;;;;;11.80;4.00;;;17.80;99.90;;;;;;5095745;28;20250;-77
2021/08/16 06:18:52;;;;;;;13.40;4.00;;;17.90;99.90;;;;;;5095536;28;20226;-79
2021/08/16 06:21:21;;;;;;;11.27;3.27;;;17.90;99.90;;;;;;5094980;28;20271;-77
2021/08/16 06:23:48;;;;;;;17.30;4.77;;;18.00;99.90;;;;;;5095396;28;20506;-77
2021/08/16 06:26:15;;;;;;;13.77;3.47;;;18.10;99.90;;;;;;5095628;28;20324;-76
2021/08/16 06:28:42;;;;;;;9.83;3.70;;;18.30;99.90;;;;;;5095639;28;20233;-76
2021/08/16 06:31:09;;;;;;;11.77;3.90;;;18.40;99.90;;;;;;5095474;28;20222;-77
2021/08/16 06:33:40;;;;;;;13.53;3.97;;;18.30;99.90;;;;;;5095875;28;20244;-76
2021/08/16 06:36:07;;;;;;;13.67;3.87;;;18.30;99.90;;;;;;5094703;28;20244;-76
2021/08/16 06:38:35;;;;;;;9.77;3.57;;;18.40;99.90;;;;;;5095354;28;20245;-76
2021/08/16 06:41:03;;;;;;;10.03;3.40;;;18.40;99.90;;;;;;5095398;28;20227;-76
2021/08/16 06:43:32;;;;;;;12.07;3.90;;;18.70;99.90;;;;;;5095465;28;20226;-76
2021/08/16 06:46:00;;;;;;;11.50;4.00;;;18.60;99.90;;;;;;5095302;28;20588;-76
2021/08/16 06:48:27;;;;;;;12.53;3.73;;;18.60;99.90;;;;;;5079772;28;20202;-76
2021/08/16 06:50:54;;;;;;;11.07;3.73;;;18.50;99.90;;;;;;5095457;28;20301;-76
2021/08/16 06:53:20;;;;;;;10.87;3.80;;;18.40;99.90;;;;;;5095380;28;20227;-76
2021/08/16 06:55:50;;;;;;;10.83;4.00;;;18.30;99.90;;;;;;5094627;28;20282;-77
2021/08/16 06:58:17;;;;;;;12.50;3.70;;;18.10;99.90;;;;;;5094864;28;20194;-75
2021/08/16 07:00:45;;;;;;;11.67;4.10;;;18.30;99.90;;;;;;5094783;28;20274;-76
2021/08/16 07:03:12;;;;;;;12.63;3.97;;;18.50;99.90;;;;;;5094127;28;20191;-75
2021/08/16 07:05:43;;;;;;;13.80;4.43;;;18.70;99.90;;;;;;5094606;28;20282;-76
2021/08/16 07:08:10;;;;;;;10.37;4.73;;;18.60;99.90;;;;;;5094459;28;20278;-75
2021/08/16 07:10:37;;;;;;;14.23;5.10;;;18.50;99.90;;;;;;5094985;28;20325;-76
2021/08/16 07:13:05;;;;;;;15.20;5.20;;;18.40;99.90;;;;;;5094622;28;20197;-75
2021/08/16 07:15:32;;;;;;;17.53;4.90;;;18.50;99.90;;;;;;5094490;28;20683;-76
2021/08/16 07:17:59;;;;;;;11.83;4.47;;;18.70;99.90;;;;;;5094931;28;20286;-76
2021/08/16 07:20:27;;;;;;;13.07;5.10;;;18.90;99.90;;;;;;5094591;28;20290;-75
2021/08/16 07:22:54;;;;;;;11.93;4.80;;;19.10;99.90;;;;;;5094885;28;20202;-77
2021/08/16 07:25:21;;;;;;;9.07;4.57;;;19.40;99.90;;;;;;5094770;28;20205;-75
2021/08/16 07:27:48;;;;;;;12.97;4.40;;;19.40;99.90;;;;;;5094318;28;20198;-76
2021/08/16 07:30:16;;;;;;;14.03;4.90;;;19.40;99.90;;;;;;5093906;28;20229;-76
2021/08/16 07:32:43;;;;;;;12.17;4.67;;;19.40;99.90;;;;;;5094243;28;20286;-76
2021/08/16 07:35:10;;;;;;;15.47;4.47;;;19.20;99.90;;;;;;5094029;28;20573;-76
2021/08/16 07:37:37;;;;;;;14.10;5.00;;;19.10;99.90;;;;;;5094091;28;20199;-76
2021/08/16 07:40:05;;;;;;;11.70;4.77;;;19.10;99.90;;;;;;5093487;28;20624;-76
2021/08/16 07:42:33;;;;;;;11.17;5.00;;;19.20;99.90;;;;;;5094231;28;20285;-77
2021/08/16 07:44:59;;;;;;;14.47;4.83;;;19.40;99.90;;;;;;5094498;28;20191;-77
2021/08/16 07:47:28;;;;;;;11.90;5.60;;;19.50;99.90;;;;;;5094695;28;20279;-76
2021/08/16 07:49:54;;;;;;;10.80;4.27;;;19.40;99.90;;;;;;5093858;28;20247;-76
2021/08/16 07:52:21;;;;;;;11.13;4.23;;;19.20;99.90;;;;;;5094400;28;20227;-76
2021/08/16 07:54:48;;;;;;;9.63;4.30;;;19.00;99.90;;;;;;5094223;28;20202;-77
2021/08/16 07:57:15;;;;;;;9.90;4.57;;;18.80;99.90;;;;;;5096660;28;20199;-78
2021/08/16 07:59:42;;;;;;;10.23;4.60;;;18.50;99.90;;;;;;5093451;28;20317;-75
2021/08/16 08:02:09;;;;;;;8.57;4.73;;;18.40;99.90;;;;;;5092905;28;20831;-76
2021/08/16 08:04:37;;;;;;;10.67;4.63;;;18.30;99.90;;;;;;5093183;28;20242;-76
2021/08/16 08:07:04;;;;;;;12.17;4.00;;;18.30;99.90;;;;;;5092373;28;20191;-76
2021/08/16 08:09:32;;;;;;;8.60;3.90;;;18.20;99.90;;;;;;5093329;28;20223;-75
2021/08/16 08:11:59;;;;;;;10.83;4.17;;;18.10;99.90;;;;;;5093753;28;20214;-76
2021/08/16 08:14:26;;;;;;;11.13;4.40;;;18.10;99.90;;;;;;5092819;28;20649;-76
2021/08/16 08:16:52;;;;;;;15.40;4.67;;;18.10;99.90;;;;;;5093807;28;20281;-77
2021/08/16 08:19:19;;;;;;;16.00;4.37;;;18.00;99.90;;;;;;5093280;28;20565;-76
2021/08/16 08:21:48;;;;;;;8.57;3.90;;;17.90;99.90;;;;;;5093409;28;20233;-75
2021/08/16 08:24:15;;;;;;;10.07;3.70;;;17.90;99.90;;;;;;5092686;28;20740;-77
2021/08/16 08:26:42;;;;;;;8.43;3.40;;;17.90;99.90;;;;;;5091830;28;20231;-76
2021/08/16 08:29:08;;;;;;;6.97;3.97;;;18.00;99.90;;;;;;5093407;28;20384;-75
2021/08/16 08:31:37;;;;;;;7.93;3.53;;;17.90;99.90;;;;;;5093688;28;20222;-76
2021/08/16 08:34:04;;;;;;;9.10;3.37;;;17.80;99.90;;;;;;5093692;28;20264;-75
2021/08/16 08:36:31;;;;;;;6.63;3.53;;;17.60;99.90;;;;;;5092716;28;20286;-75
2021/08/16 08:39:00;;;;;;;7.17;3.73;;;17.50;99.90;;;;;;5093523;28;20205;-76
2021/08/16 08:41:30;;;;;;;13.03;4.17;;;17.40;99.90;;;;;;5093095;28;20282;-77
2021/08/16 08:43:58;;;;;;;9.70;4.10;;;17.40;99.90;;;;;;5092282;28;20194;-76
2021/08/16 08:46:26;;;;;;;14.00;4.30;;;17.40;99.90;;;;;;5091775;28;20221;-76
2021/08/16 08:48:52;;;;;;;9.97;4.03;;;17.40;99.90;;;;;;5085414;28;20234;-75
2021/08/16 08:51:21;;;;;;;8.17;3.97;;;17.50;99.90;;;;;;5097031;28;20305;-76
2021/08/16 08:53:48;;;;;;;8.37;4.17;;;17.70;99.90;;;;;;5102269;28;20191;-75
2021/08/16 08:56:17;;;;;;;9.87;3.70;;;17.90;99.90;;;;;;5104090;28;20237;-76
2021/08/16 08:58:44;;;;;;;9.97;4.23;;;18.20;99.90;;;;;;5101083;28;20191;-76
2021/08/16 09:01:11;;;;;;;7.97;4.00;;;18.60;99.90;;;;;;5104996;28;20222;-77
2021/08/16 09:03:47;;;;;;;9.23;3.50;;;18.70;99.90;;;;;;5104517;28;20231;-77
2021/08/16 09:06:16;;;;;;;10.87;4.77;;;18.80;99.90;;;;;;5106308;28;20186;-76
2021/08/16 09:08:44;;;;;;;8.50;3.30;;;18.80;99.90;;;;;;5105110;28;20218;-77
2021/08/16 09:11:12;;;;;;;11.73;3.67;;;18.90;99.90;;;;;;5106258;28;20229;-76
2021/08/16 09:13:49;;;;;;;6.10;3.17;;;19.00;99.90;;;;;;5103880;28;21862;-77
2021/08/16 09:16:16;;;;;;;9.57;3.53;;;19.10;99.90;;;;;;5084669;28;20206;-77
2021/08/16 09:18:43;;;;;;;7.50;2.80;;;19.10;99.90;;;;;;5087879;28;20195;-76
2021/08/16 09:21:12;;;;;;;9.03;3.30;;;19.40;99.90;;;;;;5092927;28;20197;-76
2021/08/16 09:23:44;;;;;;;8.03;3.60;;;19.40;99.90;;;;;;5089056;28;20191;-75
2021/08/16 09:26:12;;;;;;;7.13;3.17;;;19.70;99.90;;;;;;5091437;28;20209;-76
2021/08/16 09:28:40;;;;;;;7.50;2.90;;;19.70;99.90;;;;;;5091908;28;20290;-75
2021/08/16 09:31:12;;;;;;;6.63;3.60;;;20.00;99.90;;;;;;5092491;28;20312;-76
2021/08/16 09:33:39;;;;;;;6.97;3.83;;;20.60;99.90;;;;;;5089838;28;20294;-75
2021/08/16 09:36:06;;;;;;;9.70;3.80;;;21.10;99.90;;;;;;5090880;28;20557;-75
2021/08/16 09:38:38;;;;;;;8.00;4.50;;;21.40;99.90;;;;;;5087804;28;20205;-76
2021/08/16 09:41:06;;;;;;;12.43;4.90;;;21.50;99.90;;;;;;5092580;28;20302;-77
2021/08/16 09:43:33;;;;;;;12.17;5.50;;;21.60;99.90;;;;;;5088929;28;20194;-79
2021/08/16 09:46:13;;;;;;;13.97;5.40;;;21.60;99.90;;;;;;5089650;28;20271;-76
2021/08/16 09:48:40;;;;;;;10.53;5.80;;;22.00;99.90;;;;;;5091584;28;20844;-76
2021/08/16 09:51:07;;;;;;;11.53;5.33;;;22.80;99.90;;;;;;5090764;28;20187;-75
2021/08/16 09:53:34;;;;;;;13.27;6.93;;;23.10;99.90;;;;;;5091704;28;20278;-77
2021/08/16 09:56:02;;;;;;;11.23;6.85;;;23.00;99.90;;;;;;5089279;28;20290;-76
2021/08/16 09:58:30;;;;;;;11.60;6.25;;;22.70;99.90;;;;;;5089905;28;20681;-77
2021/08/16 10:00:57;;;;;;;11.48;6.55;;;22.50;99.90;;;;;;5091133;28;20381;-76
2021/08/16 10:03:26;;;;;;;13.50;6.47;;;22.30;99.90;;;;;;5093523;28;20294;-76
2021/08/16 10:05:55;;;;;;;11.60;6.47;;;22.80;99.90;;;;;;5093503;28;20241;-76
2021/08/16 10:08:23;;;;;;;13.50;6.90;;;22.70;99.90;;;;;;5093592;28;20305;-76
2021/08/16 10:10:53;;;;;;;15.77;8.00;;;23.10;99.90;;;;;;5091900;28;20282;-77
2021/08/16 10:13:21;;;;;;;15.88;8.15;;;23.00;99.90;;;;;;5095293;28;20660;-76
2021/08/16 10:15:52;;;;;;;12.25;7.78;;;22.90;99.90;;;;;;5093894;28;20202;-75
2021/08/16 10:18:24;;;;;;;12.32;8.52;;;23.60;99.90;;;;;;5095105;28;20656;-77
2021/08/16 10:20:52;;;;;;;13.32;9.25;;;24.20;99.90;;;;;;5095200;28;20649;-76
2021/08/16 10:23:20;;;;;;;14.20;8.70;;;24.10;99.90;;;;;;5092701;28;20234;-77
2021/08/16 10:25:49;;;;;;;15.45;9.02;;;23.70;99.90;;;;;;5094855;28;20289;-75
2021/08/16 10:28:30;;;;;;;17.73;10.10;;;22.90;99.90;;;;;;5094635;28;20286;-77
2021/08/16 10:30:59;;;;;;;18.77;10.68;;;22.30;99.90;;;;;;5095085;28;20552;-76
2021/08/16 10:33:26;;;;;;;19.48;10.88;;;22.20;99.90;;;;;;5094342;28;20219;-76
2021/08/16 10:35:57;;;;;;;18.52;12.27;;;22.10;99.90;;;;;;5093144;28;20203;-76
2021/08/16 10:38:25;;;;;;;19.67;12.85;;;22.00;99.90;;;;;;5106261;28;20605;-77
2021/08/16 10:40:53;;;;;;;20.27;13.13;;;21.60;99.90;;;;;;5094407;28;20787;-77
2021/08/16 10:43:21;;;;;;;22.63;14.87;;;21.90;99.90;;;;;;5095215;28;20203;-78
2021/08/16 10:45:50;;;;;;;23.45;14.05;;;23.60;99.90;;;;;;5094240;28;20636;-76
2021/08/16 10:48:26;;;;;;;22.73;15.68;;;25.30;99.90;;;;;;5095333;28;20274;-79
2021/08/16 10:51:05;;;;;;;21.40;14.73;;;25.50;99.90;;;;;;5092872;28;20194;-76
2021/08/16 10:53:33;;;;;;;21.70;15.73;;;25.00;99.90;;;;;;5092501;28;20764;-76
2021/08/16 10:56:01;;;;;;;26.25;16.20;;;24.10;99.90;;;;;;5094840;28;20194;-77
2021/08/16 10:58:28;;;;;;;25.13;17.02;;;22.80;99.90;;;;;;5094985;28;20191;-78
2021/08/16 11:00:55;;;;;;;29.52;16.90;;;22.00;99.90;;;;;;5094602;28;20260;-76
2021/08/16 11:03:25;;;;;;;28.60;18.02;;;21.30;99.90;;;;;;5094148;28;20220;-77
2021/08/16 11:05:52;;;;;;;34.55;17.85;;;21.40;99.90;;;;;;5094880;28;20202;-76
2021/08/16 11:08:30;;;;;;;29.27;18.03;;;21.70;99.90;;;;;;5093354;28;20205;-78
2021/08/16 11:11:04;;;;;;;30.42;17.67;;;22.20;99.90;;;;;;5093077;28;20199;-78
2021/08/16 11:13:33;;;;;;;28.92;17.60;;;22.80;99.90;;;;;;5090574;28;20255;-77
2021/08/16 11:16:06;;;;;;;25.90;16.98;;;23.10;99.90;;;;;;5092959;28;20203;-77
2021/08/16 11:18:34;;;;;;;25.98;16.85;;;23.00;99.90;;;;;;5094612;28;20273;-79
2021/08/16 11:21:03;;;;;;;26.17;17.73;;;22.90;99.90;;;;;;5093953;28;20226;-79
2021/08/16 11:23:32;;;;;;;25.10;16.67;;;22.50;99.90;;;;;;5093929;28;20264;-76
2021/08/16 11:25:59;;;;;;;27.10;17.70;;;21.90;99.90;;;;;;5094040;28;20214;-78
2021/08/16 11:28:28;;;;;;;29.73;18.40;;;21.10;99.90;;;;;;5093787;28;20226;-79
2021/08/16 11:31:03;;;;;;;31.73;17.90;;;20.90;99.90;;;;;;5093708;28;20294;-78
2021/08/16 11:33:29;;;;;;;30.47;19.00;;;20.30;99.90;;;;;;5093516;28;20651;-77
2021/08/16 11:36:08;;;;;;;28.23;18.00;;;20.40;99.90;;;;;;5093109;28;20260;-75
2021/08/16 11:38:37;;;;;;;32.23;17.50;;;20.20;99.90;;;;;;5094495;28;20578;-76
2021/08/16 11:41:09;;;;;;;31.50;17.50;;;20.30;99.90;;;;;;5092178;28;20717;-78
2021/08/16 11:43:36;;;;;;;27.57;18.47;;;20.00;99.90;;;;;;5089792;28;20332;-79
2021/08/16 11:46:14;;;;;;;33.17;18.73;;;20.00;99.90;;;;;;5092995;28;20237;-76
2021/08/16 11:48:43;;;;;;;30.87;17.73;;;20.00;99.90;;;;;;5093192;28;20826;-77
2021/08/16 11:51:11;;;;;;;33.80;19.33;;;20.00;99.90;;;;;;5093329;28;20285;-76
2021/08/16 11:53:44;;;;;;;26.30;17.67;;;20.10;99.90;;;;;;5090284;28;20266;-78
2021/08/16 11:56:12;;;;;;;26.57;17.20;;;20.20;99.90;;;;;;5091378;28;20223;-77
2021/08/16 11:58:41;;;;;;;29.47;18.33;;;20.10;99.90;;;;;;5090709;28;20195;-79
2021/08/16 12:01:10;;;;;;;29.13;18.67;;;20.20;99.90;;;;;;5091797;28;20226;-78
2021/08/16 12:03:38;;;;;;;28.50;17.47;;;20.20;99.90;;;;;;5090925;28;20706;-77
2021/08/16 12:06:06;;;;;;;32.30;18.47;;;20.40;99.90;;;;;;5091187;28;20324;-78
2021/08/16 12:08:34;;;;;;;28.10;17.90;;;20.70;99.90;;;;;;5093421;28;20194;-78
2021/08/16 12:11:10;;;;;;;28.97;16.80;;;21.00;99.90;;;;;;5092546;28;20285;-77
2021/08/16 12:13:37;;;;;;;25.10;17.10;;;21.40;99.90;;;;;;5091952;28;20246;-78
2021/08/16 12:16:05;;;;;;;28.63;16.63;;;21.50;99.90;;;;;;5091285;28;20293;-78
2021/08/16 12:18:33;;;;;;;25.57;16.27;;;21.40;99.90;;;;;;5091573;28;20254;-79
2021/08/16 12:21:00;;;;;;;24.60;16.40;;;21.50;99.90;;;;;;5092770;28;20202;-78
2021/08/16 12:23:33;;;;;;;27.20;16.60;;;21.70;99.90;;;;;;5090329;28;20206;-77
2021/08/16 12:26:02;;;;;;;29.30;17.37;;;22.10;99.90;;;;;;5092606;28;20230;-77
2021/08/16 12:28:39;;;;;;;29.00;16.77;;;22.20;99.90;;;;;;5093140;28;20241;-78
2021/08/16 12:31:14;;;;;;;25.37;16.43;;;21.80;99.90;;;;;;5090028;28;20205;-79
2021/08/16 12:33:51;;;;;;;29.60;16.70;;;21.50;99.90;;;;;;5091971;28;20582;-78
2021/08/16 12:36:23;;;;;;;28.33;16.37;;;21.80;99.90;;;;;;5092956;28;20273;-77
2021/08/16 12:38:59;;;;;;;26.10;15.23;;;21.80;99.90;;;;;;5092257;28;20691;-77